Time;durP1;ratioP1;P1;durP2;ratioP2;P2;SDS_P1;SDS_P2;PMS_P1;PMS_P2;Temp;Humidity;BMP_temperature;BMP_pressure;BME280_temperature;BME280_humidity;BME280_pressure;Samples;Min_cycle;Max_cycle;Signal;HPM_P1;HPM_P2
2023/09/10 00:08:00;;;;;;;15.30;5.43;;;;;;;24.40;100.00;100630.16;20624322;28;20053;-72
2023/09/10 00:18:26;;;;;;;15.13;5.68;;;;;;;24.39;100.00;100621.19;20650959;28;20058;-74
2023/09/10 00:28:49;;;;;;;12.50;5.40;;;;;;;24.24;100.00;100602.97;20650299;28;20085;-71
2023/09/10 00:39:15;;;;;;;15.48;5.50;;;;;;;24.05;100.00;100599.25;20651179;28;20051;-72
2023/09/10 00:49:39;;;;;;;22.98;6.50;;;;;;;24.07;100.00;100602.78;20636776;28;20501;-72
2023/09/10 01:00:07;;;;;;;15.50;5.72;;;;;;;23.94;100.00;100607.81;20636966;28;20049;-71
2023/09/10 01:10:40;;;;;;;16.38;6.03;;;;;;;23.80;100.00;100600.31;20635707;28;20407;-72
2023/09/10 01:31:39;;;;;;;16.67;5.03;;;;;;;23.62;100.00;100603.75;21052379;27;20403;-70
2023/09/10 01:42:02;;;;;;;15.65;5.55;;;;;;;23.50;100.00;100598.84;21044655;28;20676;-71
2023/09/10 01:52:27;;;;;;;18.88;6.07;;;;;;;23.49;100.00;100596.22;20954255;28;20059;-70
2023/09/10 02:02:50;;;;;;;12.93;5.45;;;;;;;23.46;100.00;100607.97;20953068;28;20072;-70
2023/09/10 02:13:15;;;;;;;12.88;4.20;;;;;;;23.44;100.00;100602.63;20966492;28;20068;-70
2023/09/10 02:23:38;;;;;;;15.30;5.25;;;;;;;23.44;100.00;100593.66;20963634;28;20098;-70
2023/09/10 02:34:04;;;;;;;16.02;4.45;;;;;;;23.29;100.00;100603.25;21035572;28;20496;-70
2023/09/10 02:44:27;;;;;;;12.63;4.50;;;;;;;23.28;100.00;100604.19;20937679;28;20052;-70
2023/09/10 02:54:52;;;;;;;16.92;5.25;;;;;;;23.31;100.00;100605.88;20894649;28;20141;-71
2023/09/10 03:05:15;;;;;;;16.38;4.80;;;;;;;23.14;100.00;100611.03;20906571;28;20136;-71
2023/09/10 03:15:39;;;;;;;11.90;4.85;;;;;;;22.83;100.00;100611.34;20892718;28;20140;-70
2023/09/10 03:26:02;;;;;;;15.95;5.28;;;;;;;22.84;100.00;100597.78;20887701;28;20052;-71
2023/09/10 03:36:27;;;;;;;13.00;5.30;;;;;;;22.78;100.00;100595.34;20973525;28;20501;-70
2023/09/10 03:46:51;;;;;;;13.15;4.63;;;;;;;22.66;100.00;100609.22;20939712;28;20081;-70
2023/09/10 03:57:16;;;;;;;13.02;4.60;;;;;;;22.17;100.00;100610.09;20903006;28;20053;-70
2023/09/10 04:07:40;;;;;;;16.80;5.28;;;;;;;22.53;100.00;100606.09;20886527;28;20053;-71
2023/09/10 04:18:05;;;;;;;12.18;4.47;;;;;;;22.54;100.00;100606.97;20900587;28;20401;-71
2023/09/10 04:28:29;;;;;;;17.05;4.05;;;;;;;22.64;100.00;100621.88;20922889;28;20637;-71
2023/09/10 04:38:55;;;;;;;12.35;4.65;;;;;;;23.12;100.00;100631.75;20995473;28;20052;-70
2023/09/10 04:49:19;;;;;;;11.93;4.50;;;;;;;23.61;100.00;100623.56;20913947;28;20053;-70
2023/09/10 04:59:44;;;;;;;13.93;3.92;;;;;;;24.19;100.00;100621.19;20883824;28;20397;-71
2023/09/10 05:10:08;;;;;;;13.93;4.10;;;;;;;24.78;100.00;100625.75;20882180;28;20401;-71
2023/09/10 05:20:33;;;;;;;13.20;3.90;;;;;;;25.30;100.00;100627.84;20869449;28;20559;-71
2023/09/10 05:30:56;;;;;;;10.75;4.03;;;;;;;25.86;100.00;100621.56;20932337;28;20053;-71
2023/09/10 05:41:21;;;;;;;13.30;2.90;;;;;;;26.76;100.00;100615.06;20978893;28;20041;-71
2023/09/10 05:51:44;;;;;;;9.38;3.10;;;;;;;27.41;100.00;100607.00;20870132;28;20677;-71
2023/09/10 06:02:10;;;;;;;15.02;2.88;;;;;;;28.05;100.00;100612.31;20880035;28;20393;-71
2023/09/10 06:12:33;;;;;;;12.25;3.10;;;;;;;28.72;100.00;100609.16;20843836;28;20045;-71
2023/09/10 06:22:58;;;;;;;11.30;2.92;;;;;;;29.09;100.00;100624.03;20897346;28;20064;-71
2023/09/10 06:33:21;;;;;;;10.18;2.42;;;;;;;29.44;100.00;100631.84;20919474;28;20504;-71
2023/09/10 06:43:47;;;;;;;11.23;2.85;;;;;;;29.18;100.00;100628.03;20954292;28;20159;-71
2023/09/10 06:54:15;;;;;;;14.30;3.08;;;;;;;29.74;100.00;100632.53;20886458;28;20052;-71
2023/09/10 07:04:47;;;;;;;10.57;2.83;;;;;;;29.69;100.00;100646.47;20904195;28;20107;-71
2023/09/10 07:15:11;;;;;;;12.90;2.80;;;;;;;29.47;100.00;100639.81;20904306;28;20052;-71
2023/09/10 07:25:35;;;;;;;14.73;3.00;;;;;;;29.03;100.00;100665.22;20896167;28;20494;-71
2023/09/10 07:35:58;;;;;;;15.15;3.40;;;;;;;28.59;100.00;100658.91;21000676;28;20094;-71
2023/09/10 07:46:23;;;;;;;14.20;3.35;;;;;;;28.76;100.00;100669.66;20957801;28;20045;-70
2023/09/10 07:56:46;;;;;;;12.65;3.10;;;;;;;29.85;100.00;100664.53;20902190;28;20538;-71
2023/09/10 08:07:12;;;;;;;11.93;3.10;;;;;;;30.85;100.00;100644.06;20900118;28;20108;-71
2023/09/10 08:17:36;;;;;;;10.32;2.50;;;;;;;31.20;100.00;100663.38;20894257;28;20580;-71
2023/09/10 08:28:01;;;;;;;9.20;2.78;;;;;;;31.34;98.03;100655.06;20924686;28;20156;-70
2023/09/10 08:38:24;;;;;;;11.30;2.93;;;;;;;31.80;89.84;100669.00;21009175;28;20128;-71
2023/09/10 08:48:51;;;;;;;8.90;2.72;;;;;;;31.01;87.33;100660.19;20932397;28;20048;-71
2023/09/10 08:59:16;;;;;;;9.38;2.88;;;;;;;30.62;88.63;100659.28;20925541;28;20041;-71
2023/09/10 09:09:46;;;;;;;17.45;3.10;;;;;;;30.28;89.69;100655.25;20882003;28;20049;-71
2023/09/10 09:20:13;;;;;;;11.98;2.72;;;;;;;30.21;91.38;100643.00;20896869;28;20153;-71
2023/09/10 09:30:37;;;;;;;11.38;2.50;;;;;;;31.21;88.97;100655.09;20922050;28;20092;-71
2023/09/10 09:41:04;;;;;;;8.75;3.15;;;;;;;31.27;82.52;100656.50;20924702;28;20037;-71
2023/09/10 09:51:30;;;;;;;12.60;2.90;;;;;;;31.58;79.69;100656.00;20935064;28;20053;-71
2023/09/10 10:01:53;;;;;;;10.20;2.97;;;;;;;31.39;80.11;100658.34;20897057;28;20056;-71
2023/09/10 10:12:18;;;;;;;11.15;2.70;;;;;;;31.64;79.84;100658.31;20900165;28;20076;-71
2023/09/10 10:22:41;;;;;;;11.55;2.50;;;;;;;31.90;76.69;100655.53;20900136;28;20552;-71
2023/09/10 10:33:08;;;;;;;10.50;3.00;;;;;;;31.88;73.59;100646.56;20956071;28;20116;-71
2023/09/10 10:43:40;;;;;;;10.10;3.10;;;;;;;31.77;72.39;100654.69;20973260;28;20045;-71
2023/09/10 10:54:06;;;;;;;9.73;2.33;;;;;;;31.66;72.39;100652.75;20905918;28;20052;-71
2023/09/10 11:04:30;;;;;;;11.30;2.45;;;;;;;31.93;66.02;100636.16;20892527;28;20037;-71
2023/09/10 11:15:12;;;;;;;10.95;2.75;;;;;;;31.96;62.10;100631.34;20891731;28;20041;-71
2023/09/10 11:25:35;;;;;;;12.88;2.72;;;;;;;31.55;65.47;100634.41;20910989;28;20059;-71
2023/09/10 11:36:01;;;;;;;11.10;2.95;;;;;;;31.29;71.65;100619.06;21000707;28;20041;-71
2023/09/10 11:46:24;;;;;;;10.67;3.27;;;;;;;31.24;76.20;100607.63;20958328;28;20576;-71
2023/09/10 11:56:49;;;;;;;9.68;2.60;;;;;;;31.56;75.25;100589.75;20902591;28;20457;-72
2023/09/10 12:07:12;;;;;;;13.23;3.10;;;;;;;31.46;75.70;100588.66;20899934;28;20049;-71
2023/09/10 12:17:36;;;;;;;13.20;3.08;;;;;;;31.35;75.96;100576.81;20900589;28;20165;-71
2023/09/10 12:27:59;;;;;;;9.70;2.30;;;;;;;31.23;75.29;100571.28;20887798;28;20064;-71
2023/09/10 12:38:25;;;;;;;11.63;2.90;;;;;;;31.23;73.12;100559.50;20949230;28;20120;-71
2023/09/10 12:48:49;;;;;;;13.95;2.88;;;;;;;31.02;71.67;100563.75;20896908;28;20049;-71
2023/09/10 12:59:14;;;;;;;11.02;2.95;;;;;;;30.80;74.12;100554.38;20873996;28;20044;-71
2023/09/10 13:09:37;;;;;;;9.52;2.60;;;;;;;30.76;71.47;100550.16;20920821;28;20505;-71
2023/09/10 13:20:03;;;;;;;10.32;2.80;;;;;;;30.80;70.99;100535.31;20869141;28;20052;-71
2023/09/10 13:30:26;;;;;;;14.25;3.05;;;;;;;30.57;74.67;100529.75;20893720;28;20076;-71
2023/09/10 13:40:56;;;;;;;10.32;2.85;;;;;;;30.27;79.44;100530.03;20922349;28;20056;-71
2023/09/10 13:51:19;;;;;;;10.50;2.58;;;;;;;30.15;80.51;100520.84;20903129;28;20049;-71
2023/09/10 14:01:43;;;;;;;10.43;2.97;;;;;;;30.10;83.27;100520.31;20892058;28;20743;-72
2023/09/10 14:12:09;;;;;;;11.20;2.70;;;;;;;30.04;84.99;100516.16;20889982;28;20057;-71
2023/09/10 14:22:33;;;;;;;11.90;3.40;;;;;;;29.96;85.76;100513.09;20825250;28;20047;-71
2023/09/10 14:32:56;;;;;;;10.77;3.10;;;;;;;29.84;87.67;100522.06;20915320;28;20053;-71
2023/09/10 14:43:21;;;;;;;13.38;2.88;;;;;;;29.51;90.49;100521.63;20866977;28;20072;-71
2023/09/10 14:53:44;;;;;;;10.25;3.08;;;;;;;29.03;93.55;100515.69;20924472;28;20053;-71
2023/09/10 15:04:08;;;;;;;12.63;3.13;;;;;;;28.72;95.97;100534.91;20908627;28;20045;-72
2023/09/10 15:14:33;;;;;;;13.32;3.90;;;;;;;28.45;98.81;100541.09;20915638;28;20060;-71
2023/09/10 15:24:57;;;;;;;16.27;3.90;;;;;;;28.27;100.00;100534.09;20932982;28;20581;-71
2023/09/10 15:35:20;;;;;;;11.05;3.58;;;;;;;28.12;100.00;100534.97;21014305;28;20515;-71
2023/09/10 15:45:45;;;;;;;15.95;4.05;;;;;;;27.96;100.00;100542.31;20921421;28;20088;-71
2023/09/10 15:56:08;;;;;;;10.05;3.53;;;;;;;27.73;100.00;100540.97;20888217;28;20055;-71
2023/09/10 16:06:34;;;;;;;13.27;3.60;;;;;;;27.52;100.00;100536.78;20901023;28;20140;-72
2023/09/10 16:16:57;;;;;;;13.18;4.35;;;;;;;27.24;100.00;100521.22;20885704;28;20244;-71
2023/09/10 16:27:22;;;;;;;13.48;3.53;;;;;;;27.21;100.00;100519.53;20919545;28;20049;-71
2023/09/10 16:37:45;;;;;;;16.67;4.28;;;;;;;27.06;100.00;100514.97;21008917;28;20086;-71
2023/09/10 16:48:10;;;;;;;17.38;4.05;;;;;;;26.96;100.00;100506.50;20937731;28;20073;-71
2023/09/10 16:58:32;;;;;;;19.30;5.28;;;;;;;26.83;100.00;100513.53;20918973;28;20053;-70
2023/09/10 17:09:00;;;;;;;13.43;3.90;;;;;;;26.75;100.00;100518.50;20893720;28;20552;-70
2023/09/10 17:19:23;;;;;;;15.70;4.93;;;;;;;26.60;100.00;100519.34;20889408;28;20148;-71
2023/09/10 17:29:49;;;;;;;17.92;3.80;;;;;;;26.50;100.00;100520.81;20905114;28;20479;-71
2023/09/10 17:40:12;;;;;;;13.57;4.53;;;;;;;26.50;100.00;100520.81;20923110;28;20081;-71
2023/09/10 17:50:37;;;;;;;16.00;4.60;;;;;;;26.43;100.00;100522.97;20914105;28;20055;-71
2023/09/10 18:01:00;;;;;;;16.05;4.00;;;;;;;26.43;100.00;100533.81;20899894;28;20064;-71
2023/09/10 18:11:24;;;;;;;16.70;5.05;;;;;;;26.36;100.00;100531.50;20910680;28;20604;-72
2023/09/10 18:21:47;;;;;;;15.75;4.68;;;;;;;26.21;100.00;100530.44;20915354;28;20056;-72
2023/09/10 18:32:11;;;;;;;17.15;4.72;;;;;;;26.18;100.00;100528.78;20922456;28;20076;-71
2023/09/10 18:42:34;;;;;;;13.98;4.32;;;;;;;26.06;100.00;100529.41;20951462;28;20598;-71
2023/09/10 18:52:59;;;;;;;13.23;4.88;;;;;;;25.92;100.00;100534.69;20940158;28;20049;-70
2023/09/10 19:03:22;;;;;;;13.05;4.35;;;;;;;25.78;100.00;100521.84;20912816;28;20064;-71
2023/09/10 19:13:46;;;;;;;21.25;10.23;;;;;;;25.67;100.00;100524.22;20909328;28;20073;-70
2023/09/10 19:24:09;;;;;;;15.63;5.10;;;;;;;25.56;100.00;100512.16;20896292;28;20060;-70
2023/09/10 19:34:33;;;;;;;17.88;4.95;;;;;;;25.55;100.00;100511.28;20948524;28;20147;-71
2023/09/10 19:44:56;;;;;;;17.40;5.50;;;;;;;25.46;100.00;100510.88;20962365;28;20046;-70
2023/09/10 19:55:21;;;;;;;19.75;6.03;;;;;;;25.44;100.00;100512.78;20894595;28;20426;-71
2023/09/10 20:05:44;;;;;;;16.33;4.30;;;;;;;25.38;100.00;100520.25;20908093;28;20164;-70
2023/09/10 20:16:08;;;;;;;13.90;4.00;;;;;;;25.34;100.00;100526.72;20906885;28;20052;-70
2023/09/10 20:26:31;;;;;;;17.40;5.65;;;;;;;25.28;100.00;100523.44;20911132;28;20083;-71
2023/09/10 20:36:55;;;;;;;16.15;4.93;;;;;;;25.21;100.00;100517.47;21005065;28;20054;-71
2023/09/10 20:47:18;;;;;;;21.15;4.78;;;;;;;25.12;100.00;100512.53;20917839;28;20136;-71
2023/09/10 20:57:44;;;;;;;15.90;4.90;;;;;;;24.99;100.00;100484.34;20898001;28;20045;-70
2023/09/10 21:08:07;;;;;;;16.23;4.82;;;;;;;24.94;100.00;100481.84;20895381;28;20052;-71
2023/09/10 21:18:32;;;;;;;15.65;4.05;;;;;;;24.89;100.00;100475.81;20924823;28;20048;-72
2023/09/10 21:28:54;;;;;;;17.38;4.15;;;;;;;24.84;100.00;100471.53;20875595;28;20114;-72
2023/09/10 21:39:19;;;;;;;15.80;4.43;;;;;;;24.77;100.00;100456.56;20966102;28;20048;-71
2023/09/10 21:49:42;;;;;;;15.73;4.90;;;;;;;24.71;100.00;100454.19;20858479;28;20103;-71
2023/09/10 22:00:08;;;;;;;17.83;4.20;;;;;;;24.62;100.00;100442.84;20857031;28;20041;-71
2023/09/10 22:10:31;;;;;;;17.95;4.90;;;;;;;24.57;100.00;100431.41;20856616;28;20053;-71
2023/09/10 22:20:57;;;;;;;19.52;5.13;;;;;;;24.49;100.00;100420.09;20855978;28;20389;-72
2023/09/10 22:31:19;;;;;;;17.95;4.97;;;;;;;24.44;100.00;100405.06;20962600;28;20053;-73
2023/09/10 22:41:44;;;;;;;16.25;5.32;;;;;;;24.41;100.00;100394.44;20942379;28;20397;-71
2023/09/10 22:52:08;;;;;;;20.90;4.95;;;;;;;24.36;100.00;100388.34;20907264;28;20064;-71
2023/09/10 23:02:32;;;;;;;16.85;4.38;;;;;;;24.38;100.00;100379.25;20894881;28;20500;-72
2023/09/10 23:12:56;;;;;;;18.98;5.82;;;;;;;24.30;100.00;100372.44;20905738;28;20136;-71
2023/09/10 23:23:21;;;;;;;15.95;5.22;;;;;;;24.33;100.00;100357.00;20906136;28;20057;-71
2023/09/10 23:33:44;;;;;;;14.15;4.53;;;;;;;24.32;100.00;100346.28;20978739;28;20053;-71
2023/09/10 23:44:09;;;;;;;19.50;6.00;;;;;;;24.27;100.00;100324.94;20978305;28;20378;-71
2023/09/10 23:54:32;;;;;;;14.95;5.25;;;;;;;24.18;100.00;100328.00;20903656;28;20242;-71
